createdAt,value
2016-06-17T00:00:46.744Z,16.94
2016-06-17T00:01:46.748Z,16.98
2016-06-17T00:02:46.533Z,16.94
2016-06-17T00:03:46.973Z,16.93
2016-06-17T00:04:46.540Z,16.98
2016-06-17T00:05:46.606Z,16.94
2016-06-17T00:07:46.596Z,16.93
2016-06-17T00:08:46.569Z,16.89
2016-06-17T00:09:47.010Z,16.88
2016-06-17T00:10:46.607Z,16.86
2016-06-17T00:11:46.814Z,16.89
2016-06-17T00:12:46.614Z,16.86
2016-06-17T00:13:46.633Z,16.81
2016-06-17T00:14:46.464Z,16.93
2016-06-17T00:15:46.499Z,16.73
2016-06-17T00:16:46.519Z,16.81
2016-06-17T00:17:46.491Z,16.86
2016-06-17T00:18:46.869Z,16.78
2016-06-17T00:19:46.685Z,16.88
2016-06-17T00:20:46.735Z,16.88
2016-06-17T00:21:46.895Z,16.78
2016-06-17T00:22:46.914Z,16.96
2016-06-17T00:23:46.715Z,16.83
2016-06-17T00:24:46.921Z,16.86
2016-06-17T00:25:46.722Z,16.96
2016-06-17T00:26:46.741Z,16.91
2016-06-17T00:27:47.151Z,16.94
2016-06-17T00:28:46.748Z,16.89
2016-06-17T00:29:46.751Z,16.86
2016-06-17T00:30:46.692Z,16.88
2016-06-17T00:31:47.179Z,16.96
2016-06-17T00:32:46.996Z,16.85
2016-06-17T00:33:46.780Z,16.89
2016-06-17T00:34:46.784Z,16.91
2016-06-17T00:35:46.818Z,16.91
2016-06-17T00:36:47.026Z,16.96
2016-06-17T00:37:47.107Z,16.88
2016-06-17T00:38:46.829Z,16.94
2016-06-17T00:39:47.301Z,16.89
2016-06-17T00:41:01.164Z,16.93
2016-06-17T00:41:46.902Z,16.96
2016-06-17T00:42:46.859Z,16.89
2016-06-17T00:43:47.128Z,16.93
2016-06-17T00:45:00.959Z,16.91
2016-06-17T00:45:46.899Z,16.96
2016-06-17T00:46:46.810Z,16.91
2016-06-17T00:47:46.970Z,16.96
2016-06-17T00:48:46.926Z,16.93
2016-06-17T00:50:01.023Z,17.01
2016-06-17T00:50:46.994Z,16.91
2016-06-17T00:51:47.013Z,16.93
2016-06-17T00:52:47.204Z,16.94
2016-06-17T00:53:47.003Z,16.93
2016-06-17T00:54:47.022Z,16.89
2016-06-17T00:55:47.041Z,16.89
2016-06-17T00:57:01.294Z,16.89
2016-06-17T00:58:01.079Z,16.88
2016-06-17T00:59:01.301Z,16.93
2016-06-17T00:59:47.086Z,16.88
2016-06-17T01:01:01.714Z,16.85
2016-06-17T01:01:47.686Z,16.93
2016-06-17T01:02:47.065Z,16.97
2016-06-17T01:04:47.071Z,16.91
2016-06-17T01:05:47.293Z,16.98
2016-06-17T01:06:46.797Z,16.86
2016-06-17T01:07:46.972Z,16.89
2016-06-17T01:08:47.117Z,16.98
2016-06-17T01:09:46.964Z,16.93
2016-06-17T01:11:01.592Z,16.93
2016-06-17T01:11:47.346Z,16.96
2016-06-17T01:12:47.161Z,16.91
2016-06-17T01:13:46.711Z,16.89
2016-06-17T01:14:47.028Z,17
2016-06-17T01:15:47.422Z,16.88
2016-06-17T01:16:47.175Z,16.97
2016-06-17T01:18:01.256Z,16.93
2016-06-17T01:18:47.198Z,17
2016-06-17T01:19:47.201Z,16.93
2016-06-17T01:20:47.205Z,16.96
2016-06-17T01:21:47.428Z,16.93
2016-06-17T01:22:47.242Z,17
2016-06-17T01:23:47.669Z,16.94
2016-06-17T01:24:47.640Z,16.98
2016-06-17T01:25:47.253Z,16.98
2016-06-17T01:26:47.257Z,16.93
2016-06-17T01:27:47.291Z,17
2016-06-17T01:28:47.122Z,16.96
2016-06-17T01:29:47.345Z,16.93
2016-06-17T01:30:47.301Z,16.96
2016-06-17T01:32:47.747Z,16.91
2016-06-17T01:33:47.327Z,16.91
2016-06-17T01:34:47.534Z,16.96
2016-06-17T01:35:47.522Z,16.97
2016-06-17T01:36:47.355Z,17
2016-06-17T01:37:47.358Z,16.93
2016-06-17T01:38:47.393Z,16.91
2016-06-17T01:39:47.395Z,16.91
2016-06-17T01:40:47.399Z,16.93
2016-06-17T01:41:47.606Z,16.93
2016-06-17T01:42:47.609Z,16.96
2016-06-17T01:43:47.879Z,16.89
2016-06-17T01:44:47.428Z,16.89
2016-06-17T01:45:47.478Z,16.91
2016-06-17T01:46:47.529Z,16.91
2016-06-17T01:47:47.533Z,16.86
2016-06-17T01:48:47.504Z,16.83
2016-06-17T01:49:47.305Z,16.83
2016-06-17T01:50:47.481Z,16.89
2016-06-17T01:51:47.906Z,16.85
2016-06-17T01:52:47.535Z,16.88
2016-06-17T01:53:47.381Z,16.76
2016-06-17T01:55:01.603Z,16.83
2016-06-17T01:56:02.029Z,16.82
2016-06-17T01:56:47.816Z,16.79
2016-06-17T01:57:47.790Z,16.81
2016-06-17T01:58:47.591Z,16.81
2016-06-17T01:59:47.408Z,16.75
2016-06-17T02:00:47.804Z,16.75
2016-06-17T02:01:47.824Z,16.75
2016-06-17T02:02:48.203Z,16.76
2016-06-17T02:03:47.832Z,16.83
2016-06-17T02:04:48.085Z,16.76
2016-06-17T02:06:47.718Z,16.76
2016-06-17T02:07:48.081Z,16.76
2016-06-17T02:08:47.663Z,16.71
2016-06-17T02:09:47.682Z,16.66
2016-06-17T02:10:47.873Z,16.63
2016-06-17T02:11:47.893Z,16.7
2016-06-17T02:12:47.928Z,16.66
2016-06-17T02:13:47.914Z,16.66
2016-06-17T02:14:47.700Z,16.68
2016-06-17T02:15:47.703Z,16.7
2016-06-17T02:16:47.550Z,16.75
2016-06-17T02:17:47.711Z,16.78
2016-06-17T02:18:47.979Z,16.82
2016-06-17T02:19:47.795Z,16.7
2016-06-17T02:20:47.330Z,16.71
2016-06-17T02:21:47.647Z,16.7
2016-06-17T02:22:47.836Z,16.79
2016-06-17T02:23:47.528Z,16.71
2016-06-17T02:24:47.813Z,16.68
2016-06-17T02:25:48.691Z,16.67
2016-06-17T02:26:47.851Z,16.67
2016-06-17T02:28:02.121Z,16.57
2016-06-17T02:28:47.857Z,16.61
2016-06-17T02:29:47.861Z,16.6
2016-06-17T02:30:47.553Z,16.61
2016-06-17T02:31:47.618Z,16.52
2016-06-17T02:32:48.075Z,16.52
2016-06-17T02:33:47.890Z,16.58
2016-06-17T02:34:47.894Z,16.48
2016-06-17T02:35:47.913Z,16.53
2016-06-17T02:36:47.917Z,16.52
2016-06-17T02:37:48.122Z,16.45
2016-06-17T02:38:47.939Z,16.48
2016-06-17T02:39:47.927Z,16.43
2016-06-17T02:40:47.915Z,16.45
2016-06-17T02:42:02.216Z,16.38
2016-06-17T02:42:47.969Z,16.34
2016-06-17T02:43:48.175Z,16.38
2016-06-17T02:44:48.179Z,16.35
2016-06-17T02:49:48.008Z,16.35
2016-06-17T02:51:02.106Z,16.27
2016-06-17T02:51:48.015Z,16.23
2016-06-17T02:52:48.034Z,16.15
2016-06-17T02:53:48.053Z,16.25
2016-06-17T02:54:48.057Z,16.2
2016-06-17T02:55:48.842Z,16.28
2016-06-17T02:56:48.501Z,16.23
2016-06-17T02:57:48.083Z,16.15
2016-06-17T02:58:48.149Z,16.14
2016-06-17T02:59:47.762Z,16.17
2016-06-17T03:00:48.077Z,16.12
2016-06-17T03:01:48.081Z,16.12
2016-06-17T03:02:48.303Z,16.17
2016-06-17T03:03:48.167Z,16.15
2016-06-17T03:04:48.138Z,16.11
2016-06-17T03:05:48.377Z,16.09
2016-06-17T03:06:48.348Z,16.05
2016-06-17T03:07:48.148Z,16.12
2016-06-17T03:08:47.684Z,16.09
2016-06-17T03:10:02.296Z,16.02
2016-06-17T03:10:48.159Z,16.07
2016-06-17T03:11:48.412Z,16.08
2016-06-17T03:12:48.213Z,16.02
2016-06-17T03:13:48.216Z,16.07
2016-06-17T03:14:47.970Z,16.04
2016-06-17T03:15:47.754Z,16.09
2016-06-17T03:16:48.227Z,16.11
2016-06-17T03:17:48.246Z,16.09
2016-06-17T03:18:48.264Z,16.09
2016-06-17T03:20:02.159Z,16.02
2016-06-17T03:20:48.271Z,16.05
2016-06-17T03:21:48.260Z,16.08
2016-06-17T03:22:47.998Z,16.05
2016-06-17T03:23:48.501Z,16.04
2016-06-17T03:24:48.317Z,16.02
2016-06-17T03:25:48.727Z,16.07
2016-06-17T03:27:02.589Z,16
2016-06-17T03:28:48.331Z,16.04
2016-06-17T03:29:49.163Z,16.04
2016-06-17T03:30:48.572Z,16
2016-06-17T03:31:48.763Z,16
2016-06-17T03:32:48.548Z,16.01
2016-06-17T03:33:48.363Z,16.01
2016-06-17T03:34:48.382Z,16.04
2016-06-17T03:35:48.590Z,15.97
2016-06-17T03:37:02.686Z,15.97
2016-06-17T03:37:48.221Z,15.96
2016-06-17T03:38:48.600Z,15.87
2016-06-17T03:39:48.651Z,15.86
2016-06-17T03:40:48.809Z,15.78
2016-06-17T03:41:48.860Z,15.96
2016-06-17T03:42:48.644Z,15.93
2016-06-17T03:43:48.336Z,15.92
2016-06-17T03:44:48.652Z,15.83
2016-06-17T03:45:48.874Z,15.78
2016-06-17T03:46:48.659Z,15.84
2016-06-17T03:47:48.490Z,15.89
2016-06-17T03:48:48.666Z,15.78
2016-06-17T03:49:48.309Z,15.83
2016-06-17T03:50:48.032Z,15.75
2016-06-17T03:51:48.473Z,15.71
2016-06-17T03:52:48.726Z,15.71
2016-06-17T03:53:48.715Z,15.71
2016-06-17T03:54:48.343Z,15.67
2016-06-17T03:55:48.502Z,15.68
2016-06-17T03:57:48.744Z,15.57
2016-06-17T03:59:02.622Z,15.62
2016-06-17T03:59:48.563Z,15.67
2016-06-17T04:00:48.551Z,15.62
2016-06-17T04:01:48.773Z,15.57
2016-06-17T04:02:48.605Z,15.59
2016-06-17T04:03:48.577Z,15.56
2016-06-17T04:04:48.798Z,15.65
2016-06-17T04:05:49.037Z,15.6
2016-06-17T04:06:48.822Z,15.49
2016-06-17T04:07:48.825Z,15.53
2016-06-17T04:09:48.645Z,15.56
2016-06-17T04:10:48.851Z,15.57
2016-06-17T04:11:48.636Z,15.51
2016-06-17T04:12:48.658Z,15.51
2016-06-17T04:13:48.508Z,15.53
2016-06-17T04:15:48.522Z,15.57
2016-06-17T04:16:48.731Z,15.53
2016-06-17T04:17:48.706Z,15.51
2016-06-17T04:18:48.726Z,15.53
2016-06-17T04:19:48.731Z,15.54
2016-06-17T04:20:48.938Z,15.44
2016-06-17T04:21:48.740Z,15.46
2016-06-17T04:22:48.807Z,15.43
2016-06-17T04:23:52.185Z,15.41
2016-06-17T04:24:48.783Z,15.46
2016-06-17T04:25:48.771Z,15.44
2016-06-17T04:27:02.884Z,15.41
2016-06-17T04:28:49.001Z,15.39
2016-06-17T04:30:02.865Z,15.38
2016-06-17T04:30:49.244Z,15.47
2016-06-17T04:31:49.028Z,15.44
2016-06-17T04:32:49.220Z,15.44
2016-06-17T04:33:47.879Z,15.41
2016-06-17T04:34:48.836Z,15.43
2016-06-17T04:36:48.812Z,15.44
2016-06-17T04:37:48.846Z,15.5
2016-06-17T04:38:49.068Z,15.51
2016-06-17T04:39:48.868Z,15.5
2016-06-17T04:40:48.872Z,15.53
2016-06-17T04:42:48.894Z,15.51
2016-06-17T04:43:49.335Z,15.49
2016-06-17T04:44:48.901Z,15.44
2016-06-17T04:45:48.750Z,15.43
2016-06-17T04:46:49.112Z,15.53
2016-06-17T04:47:49.132Z,15.49
2016-06-17T04:48:48.946Z,15.51
2016-06-17T04:49:48.935Z,15.43
2016-06-17T04:50:48.844Z,15.53
2016-06-17T04:51:48.942Z,15.47
2016-06-17T04:52:48.789Z,15.43
2016-06-17T04:53:48.995Z,15.43
2016-06-17T04:55:48.971Z,15.51
2016-06-17T04:56:48.991Z,15.56
2016-06-17T04:57:48.822Z,15.54
2016-06-17T04:58:48.998Z,15.56
2016-06-17T04:59:49.219Z,15.56
2016-06-17T05:00:48.848Z,15.53
2016-06-17T05:01:49.023Z,15.51
2016-06-17T05:03:49.046Z,15.53
2016-06-17T05:04:49.455Z,15.54
2016-06-17T05:05:49.068Z,15.53
2016-06-17T05:06:49.056Z,15.51
2016-06-17T05:07:49.076Z,15.56
2016-06-17T05:08:49.297Z,15.59
2016-06-17T05:09:49.083Z,15.53
2016-06-17T05:10:49.100Z,15.6
2016-06-17T05:11:49.104Z,15.53
2016-06-17T05:13:03.593Z,15.5
2016-06-17T05:13:49.127Z,15.57
2016-06-17T05:14:49.115Z,15.53
2016-06-17T05:15:49.150Z,15.54
2016-06-17T05:16:49.137Z,15.56
2016-06-17T05:17:49.547Z,15.56
2016-06-17T05:18:48.910Z,15.53
2016-06-17T05:19:49.367Z,15.59
2016-06-17T05:20:49.152Z,15.51
2016-06-17T05:21:49.170Z,15.53
2016-06-17T05:22:49.408Z,15.5
2016-06-17T05:23:48.723Z,15.51
2016-06-17T05:24:49.399Z,15.56
2016-06-17T05:25:49.372Z,15.57
2016-06-17T05:26:49.219Z,15.59
2016-06-17T05:27:49.395Z,15.51
2016-06-17T05:28:49.398Z,15.59
2016-06-17T05:29:49.214Z,15.57
2016-06-17T05:30:49.420Z,15.57
2016-06-17T05:31:49.221Z,15.62
2016-06-17T05:33:03.177Z,15.54
2016-06-17T05:33:48.915Z,15.6
2016-06-17T05:35:03.169Z,15.53
2016-06-17T05:35:49.312Z,15.6
2016-06-17T05:36:49.691Z,15.59
2016-06-17T05:37:49.272Z,15.59
2016-06-17T05:38:49.292Z,15.59
2016-06-17T05:39:49.358Z,15.56
2016-06-17T05:40:49.470Z,15.65
2016-06-17T05:41:49.521Z,15.67
2016-06-17T05:42:49.743Z,15.59
2016-06-17T05:43:49.543Z,15.57
2016-06-17T05:44:49.296Z,15.56
2016-06-17T05:45:49.550Z,15.6
2016-06-17T05:46:49.319Z,15.68
2016-06-17T05:47:49.557Z,15.64
2016-06-17T05:48:49.357Z,15.65
2016-06-17T05:49:49.393Z,15.67
2016-06-17T05:50:49.192Z,15.68
2016-06-17T05:52:03.649Z,15.6
2016-06-17T05:52:49.824Z,15.6
2016-06-17T05:54:49.597Z,15.6
2016-06-17T05:55:49.616Z,15.59
2016-06-17T05:57:49.420Z,15.64
2016-06-17T05:58:49.423Z,15.67
2016-06-17T05:59:49.646Z,15.62
2016-06-17T06:00:49.633Z,15.64
2016-06-17T06:01:49.465Z,15.65
2016-06-17T06:03:03.734Z,15.71
2016-06-17T06:03:49.659Z,15.68
2016-06-17T06:04:49.334Z,15.67
2016-06-17T06:05:49.572Z,15.64
2016-06-17T06:06:49.888Z,15.6
2016-06-17T06:07:49.736Z,15.67
2016-06-17T06:08:49.724Z,15.62
2016-06-17T06:09:49.523Z,15.57
2016-06-17T06:10:49.933Z,15.65
2016-06-17T06:11:49.530Z,15.65
2016-06-17T06:12:49.753Z,15.65
2016-06-17T06:13:49.788Z,15.62
2016-06-17T06:14:49.947Z,15.71
2016-06-17T06:15:49.591Z,15.65
2016-06-17T06:16:49.767Z,15.69
2016-06-17T06:17:49.567Z,15.71
2016-06-17T06:18:49.883Z,15.67
2016-06-17T06:19:49.590Z,15.69
2016-06-17T06:20:50.030Z,15.65
2016-06-17T06:21:49.644Z,15.62
2016-06-17T06:22:50.193Z,15.6
2016-06-17T06:23:49.806Z,15.6
2016-06-17T06:24:50.232Z,15.59
2016-06-17T06:25:49.845Z,15.65
2016-06-17T06:26:49.474Z,15.6
2016-06-17T06:27:49.477Z,15.65
2016-06-17T06:28:49.887Z,15.67
2016-06-17T06:29:49.504Z,15.69
2016-06-17T06:30:50.091Z,15.67
2016-06-17T06:31:49.912Z,15.65
2016-06-17T06:32:49.702Z,15.67
2016-06-17T06:33:50.116Z,15.68
2016-06-17T06:35:50.392Z,15.64
2016-06-17T06:36:50.366Z,15.71
2016-06-17T06:37:50.010Z,15.62
2016-06-17T06:39:04.470Z,15.69
2016-06-17T06:39:50.411Z,15.68
2016-06-17T06:40:50.041Z,15.64
2016-06-17T06:41:49.357Z,15.67
2016-06-17T06:42:49.674Z,15.62
2016-06-17T06:43:49.787Z,15.68
2016-06-17T06:44:50.634Z,15.65
2016-06-17T06:45:49.904Z,15.65
2016-06-17T06:46:50.047Z,15.6
2016-06-17T06:47:50.036Z,15.68
2016-06-17T06:48:50.273Z,15.67
2016-06-17T06:49:49.729Z,15.76
2016-06-17T06:50:50.280Z,15.72
2016-06-17T06:51:50.064Z,15.71
2016-06-17T06:52:50.084Z,15.71
2016-06-17T06:53:50.088Z,15.72
2016-06-17T06:54:50.107Z,15.74
2016-06-17T06:55:50.314Z,15.72
2016-06-17T06:56:50.300Z,15.71
2016-06-17T06:57:50.101Z,15.78
2016-06-17T06:58:50.152Z,15.78
2016-06-17T07:00:04.452Z,15.72
2016-06-17T07:00:50.128Z,15.82
2016-06-17T07:01:49.818Z,15.82
2016-06-17T07:02:49.931Z,15.72
2016-06-17T07:03:49.965Z,15.83
2016-06-17T07:04:49.891Z,15.68
2016-06-17T07:05:50.035Z,15.72
2016-06-17T07:06:49.617Z,15.71
2016-06-17T07:07:49.963Z,15.72
2016-06-17T07:09:04.264Z,15.71
2016-06-17T07:10:50.255Z,15.71
2016-06-17T07:11:50.463Z,15.8
2016-06-17T07:12:50.028Z,15.82
2016-06-17T07:13:50.266Z,15.82
2016-06-17T07:14:50.019Z,15.82
2016-06-17T07:15:50.444Z,15.92
2016-06-17T07:17:03.964Z,15.83
2016-06-17T07:18:04.124Z,15.97
2016-06-17T07:18:50.079Z,15.93
2016-06-17T07:20:03.991Z,16.05
2016-06-17T07:20:50.305Z,16.07
2016-06-17T07:21:50.481Z,16.01
2016-06-17T07:22:49.626Z,16.05
2016-06-17T07:23:50.098Z,16.04
2016-06-17T07:24:50.117Z,16.05
2016-06-17T07:25:50.370Z,16.08
2016-06-17T07:26:50.326Z,16.05
2016-06-17T07:27:50.143Z,16.15
2016-06-17T07:28:50.365Z,16.15
2016-06-17T07:30:04.258Z,16.27
2016-06-17T07:30:50.497Z,16.14
2016-06-17T07:31:50.187Z,16.3
2016-06-17T07:32:50.363Z,16.28
2016-06-17T07:33:50.773Z,16.3
2016-06-17T07:34:50.168Z,16.35
2016-06-17T07:35:50.405Z,16.33
2016-06-17T07:36:50.408Z,16.42
2016-06-17T07:37:50.411Z,16.31
2016-06-17T07:38:50.415Z,16.41
2016-06-17T07:39:50.215Z,16.45
2016-06-17T07:40:50.422Z,16.43
2016-06-17T07:41:50.238Z,16.53
2016-06-17T07:42:50.256Z,16.52
2016-06-17T07:43:50.088Z,16.52
2016-06-17T07:44:50.280Z,16.48
2016-06-17T07:45:50.267Z,16.57
2016-06-17T07:46:50.349Z,16.53
2016-06-17T07:48:50.294Z,16.66
2016-06-17T07:49:50.312Z,16.61
2016-06-17T07:50:50.503Z,16.64
2016-06-17T07:51:50.319Z,16.63
2016-06-17T07:52:50.526Z,16.61
2016-06-17T07:53:50.373Z,16.73
2016-06-17T07:54:50.548Z,16.49
2016-06-17T07:55:50.708Z,16.61
2016-06-17T07:56:50.368Z,16.6
2016-06-17T07:57:50.856Z,16.78
2016-06-17T07:58:50.375Z,16.73
2016-06-17T07:59:50.597Z,16.71
2016-06-17T08:04:59.084Z,16.78
2016-06-17T08:05:58.478Z,16.78
2016-06-17T08:06:58.888Z,16.96
2016-06-17T08:07:58.859Z,16.89
2016-06-17T08:08:58.660Z,16.98
2016-06-17T08:09:57.835Z,16.97
2016-06-17T08:10:58.495Z,16.94
2016-06-17T08:11:58.515Z,17.01
2016-06-17T08:12:57.876Z,16.94
2016-06-17T08:13:58.536Z,17.04
2016-06-17T08:14:58.539Z,16.96
2016-06-17T08:15:58.543Z,16.97
2016-06-17T08:16:58.109Z,17.01
2016-06-17T08:17:57.910Z,17.07
2016-06-17T08:18:58.773Z,17.07
2016-06-17T08:19:57.917Z,17.01
2016-06-17T08:21:13.373Z,17.06
2016-06-17T08:21:59.455Z,16.96
2016-06-17T08:22:58.192Z,17.01
2016-06-17T08:24:01.493Z,17.07
2016-06-17T08:24:59.465Z,16.98
2016-06-17T08:26:13.422Z,17.06
2016-06-17T08:26:58.660Z,17.15
2016-06-17T08:28:13.476Z,17.11
2016-06-17T08:28:59.073Z,17.12
2016-06-17T08:29:59.514Z,17.18
2016-06-17T08:30:59.564Z,17.18
2016-06-17T08:31:58.693Z,17.19
2016-06-17T08:34:13.497Z,17.12
2016-06-17T08:34:58.064Z,17.14
2016-06-17T08:35:59.737Z,17.15
2016-06-17T08:36:58.710Z,17.12
2016-06-17T08:37:59.574Z,17.08
2016-06-17T08:38:59.014Z,17.19
2016-06-17T08:39:58.737Z,17.07
2016-06-17T08:40:58.755Z,17.11
2016-06-17T08:41:58.758Z,17.08
2016-06-17T08:42:58.762Z,17.03
2016-06-17T08:43:59.047Z,17
2016-06-17T08:44:27.234Z,16.79
